createdAt,value
2018-11-03T00:01:08.108Z,13.10
2018-11-03T00:03:35.543Z,13.73
2018-11-03T00:06:03.070Z,13.13
2018-11-03T00:08:30.500Z,12.70
2018-11-03T00:10:58.053Z,12.50
2018-11-03T00:13:25.503Z,12.07
2018-11-03T00:15:53.099Z,11.90
2018-11-03T00:18:20.534Z,11.87
2018-11-03T00:20:48.052Z,11.00
2018-11-03T00:23:15.470Z,11.20
2018-11-03T00:25:42.927Z,11.00
2018-11-03T00:28:10.390Z,11.33
2018-11-03T00:30:37.810Z,11.93
2018-11-03T00:33:05.371Z,11.60
2018-11-03T00:35:32.838Z,11.37
2018-11-03T00:38:00.386Z,11.70
2018-11-03T00:40:27.840Z,12.00
2018-11-03T00:42:55.443Z,11.57
2018-11-03T00:45:22.771Z,11.90
2018-11-03T00:47:50.268Z,11.80
2018-11-03T00:50:18.076Z,11.80
2018-11-03T00:52:45.535Z,10.93
2018-11-03T00:55:13.386Z,10.77
2018-11-03T00:57:41.263Z,11.30
2018-11-03T01:00:13.942Z,11.60
2018-11-03T01:02:42.841Z,10.97
2018-11-03T01:05:11.035Z,10.63
2018-11-03T01:07:39.499Z,11.23
2018-11-03T01:10:07.087Z,10.53
2018-11-03T01:12:35.343Z,12.17
2018-11-03T01:15:02.973Z,11.60
2018-11-03T01:17:30.555Z,12.30
2018-11-03T01:19:58.215Z,11.30
2018-11-03T01:22:25.659Z,11.87
2018-11-03T01:24:53.228Z,11.30
2018-11-03T01:27:20.895Z,11.80
2018-11-03T01:29:48.358Z,11.63
2018-11-03T01:32:15.798Z,11.00
2018-11-03T01:34:43.194Z,11.57
2018-11-03T01:37:10.610Z,11.90
2018-11-03T01:39:39.634Z,11.90
2018-11-03T01:42:07.126Z,10.80
2018-11-03T01:44:34.668Z,12.27
2018-11-03T01:47:02.159Z,12.13
2018-11-03T01:49:29.615Z,13.03
2018-11-03T01:51:57.023Z,12.23
2018-11-03T01:54:24.789Z,13.37
2018-11-03T01:56:52.210Z,12.10
2018-11-03T01:59:19.704Z,12.70
2018-11-03T02:01:47.111Z,12.97
2018-11-03T02:04:14.717Z,13.27
2018-11-03T02:06:42.156Z,13.43
2018-11-03T02:09:10.399Z,13.90
2018-11-03T02:11:37.822Z,12.80
2018-11-03T02:14:05.255Z,13.37
2018-11-03T02:16:32.741Z,14.10
2018-11-03T02:19:00.214Z,13.57
2018-11-03T02:21:27.679Z,12.77
2018-11-03T02:23:55.091Z,13.90
2018-11-03T02:26:22.677Z,15.30
2018-11-03T02:28:50.179Z,15.20
2018-11-03T02:31:17.620Z,15.73
2018-11-03T02:33:45.036Z,14.30
2018-11-03T02:36:12.808Z,15.50
2018-11-03T02:38:40.236Z,15.77
2018-11-03T02:41:07.681Z,15.40
2018-11-03T02:43:35.110Z,14.83
2018-11-03T02:46:03.851Z,14.90
2018-11-03T02:48:37.432Z,15.00
2018-11-03T02:51:04.886Z,15.17
2018-11-03T02:53:32.303Z,15.70
2018-11-03T02:55:59.900Z,15.33
2018-11-03T02:58:27.753Z,15.60
2018-11-03T03:00:55.310Z,16.33
2018-11-03T03:03:22.730Z,16.70
2018-11-03T03:05:50.160Z,15.67
2018-11-03T03:08:17.570Z,17.67
2018-11-03T03:10:45.118Z,17.30
2018-11-03T03:13:12.525Z,19.27
2018-11-03T03:15:39.972Z,19.60
2018-11-03T03:18:07.414Z,53.37
2018-11-03T03:20:34.833Z,52.97
2018-11-03T03:23:02.240Z,18.43
2018-11-03T03:25:29.742Z,18.90
2018-11-03T03:27:57.142Z,17.07
2018-11-03T03:30:24.594Z,15.63
2018-11-03T03:32:52.010Z,15.70
2018-11-03T03:35:23.234Z,12.83
2018-11-03T03:37:50.637Z,13.00
2018-11-03T03:40:18.066Z,28.03
2018-11-03T03:42:45.494Z,12.80
2018-11-03T03:45:12.892Z,13.60
2018-11-03T03:47:40.320Z,13.20
2018-11-03T03:50:08.652Z,13.87
2018-11-03T03:52:36.150Z,19.73
2018-11-03T03:55:03.595Z,13.97
2018-11-03T03:57:31.035Z,12.60
2018-11-03T03:59:58.481Z,13.97
2018-11-03T04:02:25.952Z,14.43
2018-11-03T04:04:53.442Z,14.90
2018-11-03T04:07:20.908Z,28.13
2018-11-03T04:09:48.322Z,15.60
2018-11-03T04:12:15.749Z,16.07
2018-11-03T04:14:43.161Z,15.63
2018-11-03T04:17:10.603Z,14.90
2018-11-03T04:19:38.051Z,15.23
2018-11-03T04:22:05.479Z,40.63
2018-11-03T04:24:32.879Z,40.33
2018-11-03T04:27:00.314Z,16.10
2018-11-03T04:29:27.725Z,31.43
2018-11-03T04:31:55.207Z,16.83
2018-11-03T04:34:22.603Z,13.10
2018-11-03T04:36:50.048Z,13.60
2018-11-03T04:39:17.580Z,14.30
2018-11-03T04:41:45.003Z,14.43
2018-11-03T04:44:12.434Z,14.40
2018-11-03T04:46:39.866Z,16.00
2018-11-03T04:49:07.260Z,14.03
2018-11-03T04:51:35.082Z,14.50
2018-11-03T04:54:02.504Z,15.93
2018-11-03T04:56:29.981Z,13.20
2018-11-03T04:58:57.734Z,14.27
2018-11-03T05:01:25.273Z,14.70
2018-11-03T05:03:52.851Z,15.13
2018-11-03T05:06:20.295Z,15.97
2018-11-03T05:08:47.728Z,15.10
2018-11-03T05:11:15.344Z,14.80
2018-11-03T05:13:42.828Z,14.10
2018-11-03T05:16:10.298Z,13.23
2018-11-03T05:18:37.750Z,13.37
2018-11-03T05:21:05.838Z,13.20
2018-11-03T05:23:33.407Z,13.73
2018-11-03T05:26:00.900Z,13.73
2018-11-03T05:28:28.458Z,13.20
2018-11-03T05:30:56.127Z,13.30
2018-11-03T05:33:23.502Z,14.03
2018-11-03T05:35:50.956Z,12.60
2018-11-03T05:38:18.375Z,12.80
2018-11-03T05:40:45.835Z,13.03
2018-11-03T05:43:13.243Z,13.27
2018-11-03T05:45:40.671Z,13.07
2018-11-03T05:48:08.087Z,13.73
2018-11-03T05:50:35.590Z,12.40
2018-11-03T05:53:03.000Z,13.57
2018-11-03T05:55:30.484Z,13.27
2018-11-03T05:57:57.909Z,12.37
2018-11-03T06:00:26.604Z,12.23
2018-11-03T06:02:54.778Z,12.47
2018-11-03T06:05:22.304Z,13.30
2018-11-03T06:07:49.703Z,13.90
2018-11-03T06:10:17.273Z,13.20
2018-11-03T06:12:44.675Z,13.40
2018-11-03T06:15:12.156Z,13.00
2018-11-03T06:17:39.568Z,17.97
2018-11-03T06:20:07.122Z,20.23
2018-11-03T06:22:34.934Z,13.50
2018-11-03T06:25:02.734Z,12.20
2018-11-03T06:27:30.290Z,14.70
2018-11-03T06:29:57.731Z,13.30
2018-11-03T06:32:25.132Z,12.87
2018-11-03T06:34:52.767Z,11.90
2018-11-03T06:37:20.218Z,12.57
2018-11-03T06:39:47.624Z,12.20
2018-11-03T06:42:15.057Z,12.30
2018-11-03T06:44:42.474Z,12.07
2018-11-03T06:47:09.944Z,11.73
2018-11-03T06:49:37.363Z,13.17
2018-11-03T06:52:05.101Z,12.53
2018-11-03T06:54:32.443Z,16.50
2018-11-03T06:56:59.914Z,16.50
2018-11-03T06:59:27.332Z,16.03
2018-11-03T07:01:54.745Z,13.47
2018-11-03T07:04:22.174Z,13.20
2018-11-03T07:06:49.607Z,15.00
2018-11-03T07:09:17.004Z,15.13
2018-11-03T07:11:44.624Z,15.70
2018-11-03T07:14:11.933Z,18.83
2018-11-03T07:16:39.387Z,16.67
2018-11-03T07:19:06.822Z,16.80
2018-11-03T07:21:34.700Z,16.30
2018-11-03T07:24:02.124Z,15.57
2018-11-03T07:26:29.546Z,14.77
2018-11-03T07:28:56.951Z,18.43
2018-11-03T07:31:24.392Z,14.40
2018-11-03T07:33:51.838Z,14.17
2018-11-03T07:36:19.390Z,13.83
2018-11-03T07:38:46.774Z,15.23
2018-11-03T07:41:14.220Z,14.30
2018-11-03T07:43:41.653Z,13.67
2018-11-03T07:46:09.077Z,12.50
2018-11-03T07:48:36.599Z,13.47
2018-11-03T07:51:04.007Z,13.33
2018-11-03T07:53:31.424Z,13.17
2018-11-03T07:55:58.855Z,13.70
2018-11-03T07:58:26.296Z,13.73
2018-11-03T08:00:53.733Z,15.07
2018-11-03T08:03:21.162Z,13.57
2018-11-03T08:05:48.759Z,14.50
2018-11-03T08:08:16.255Z,14.80
2018-11-03T08:10:43.785Z,15.70
2018-11-03T08:13:11.288Z,15.73
2018-11-03T08:15:38.742Z,21.07
2018-11-03T08:18:06.167Z,16.57
2018-11-03T08:20:33.589Z,17.83
2018-11-03T08:23:01.037Z,18.63
2018-11-03T08:25:28.460Z,17.73
2018-11-03T08:27:56.392Z,17.57
2018-11-03T08:30:23.891Z,18.30
2018-11-03T08:32:51.342Z,19.50
2018-11-03T08:35:18.740Z,19.43
2018-11-03T08:37:46.200Z,19.23
2018-11-03T08:40:13.613Z,19.30
2018-11-03T08:42:41.366Z,19.73
2018-11-03T08:45:15.540Z,20.27
2018-11-03T08:47:42.976Z,22.03
2018-11-03T08:50:11.286Z,22.20
2018-11-03T08:52:38.805Z,23.90
2018-11-03T08:55:07.241Z,23.70
2018-11-03T08:57:34.704Z,25.97
2018-11-03T09:00:02.243Z,26.80
2018-11-03T09:02:29.687Z,25.70
2018-11-03T09:04:57.089Z,26.93
2018-11-03T09:07:24.554Z,26.60
2018-11-03T09:09:52.003Z,24.93
2018-11-03T09:12:19.454Z,27.07
2018-11-03T09:14:46.912Z,25.93
2018-11-03T09:17:14.291Z,27.20
2018-11-03T09:19:41.740Z,26.90
2018-11-03T09:22:09.192Z,25.27
2018-11-03T09:24:36.610Z,24.23
2018-11-03T09:27:04.105Z,24.50
2018-11-03T09:29:31.519Z,25.27
2018-11-03T09:31:59.085Z,25.00
2018-11-03T09:34:26.436Z,26.30
2018-11-03T09:36:54.111Z,26.47
2018-11-03T09:39:21.648Z,26.60
2018-11-03T09:41:48.978Z,25.20
2018-11-03T09:44:16.423Z,25.33
2018-11-03T09:46:43.840Z,25.30
2018-11-03T09:49:11.287Z,27.33
2018-11-03T09:51:38.691Z,23.90
2018-11-03T09:54:06.157Z,24.00
2018-11-03T09:56:33.635Z,22.60
2018-11-03T09:59:01.197Z,22.17
2018-11-03T10:01:28.596Z,22.97
2018-11-03T10:03:56.135Z,21.97
2018-11-03T10:06:23.549Z,21.00
2018-11-03T10:08:51.022Z,21.20
2018-11-03T10:11:18.449Z,21.30
2018-11-03T10:13:45.885Z,21.40
2018-11-03T10:16:13.506Z,21.10
2018-11-03T10:18:40.954Z,21.93
2018-11-03T10:21:08.366Z,22.63
2018-11-03T10:23:35.921Z,22.67
2018-11-03T10:26:03.394Z,21.23
2018-11-03T10:28:30.865Z,22.47
2018-11-03T10:30:58.266Z,17.50
2018-11-03T10:33:25.730Z,19.20
2018-11-03T10:35:53.168Z,18.80
2018-11-03T10:38:20.593Z,18.07
2018-11-03T10:40:48.024Z,20.63
2018-11-03T10:43:15.486Z,19.70
2018-11-03T10:45:42.962Z,17.73
2018-11-03T10:48:10.391Z,17.30
2018-11-03T10:50:37.893Z,14.97
2018-11-03T10:53:05.509Z,15.43
2018-11-03T10:55:32.937Z,14.53
2018-11-03T10:58:00.453Z,14.07
2018-11-03T11:00:34.732Z,13.67
2018-11-03T11:03:07.990Z,13.83
2018-11-03T11:05:49.920Z,17.40
2018-11-03T11:08:22.991Z,12.80
2018-11-03T11:10:56.072Z,13.60
2018-11-03T11:13:25.090Z,13.37
2018-11-03T11:15:54.331Z,14.53
2018-11-03T11:18:21.912Z,12.40
2018-11-03T11:20:49.361Z,13.10
2018-11-03T11:23:16.821Z,13.33
2018-11-03T11:25:44.282Z,14.70
2018-11-03T11:28:11.732Z,13.10
2018-11-03T11:30:40.625Z,13.90
2018-11-03T11:33:09.969Z,13.20
2018-11-03T11:35:37.403Z,13.40
2018-11-03T11:38:05.722Z,14.63
2018-11-03T11:40:33.352Z,12.87
2018-11-03T11:43:00.894Z,12.67
2018-11-03T11:45:28.331Z,13.80
2018-11-03T11:47:55.908Z,13.33
2018-11-03T11:50:23.347Z,13.93
2018-11-03T11:52:51.084Z,13.83
2018-11-03T11:55:18.571Z,14.33
2018-11-03T11:57:46.043Z,14.63
2018-11-03T12:00:13.864Z,15.50
2018-11-03T12:02:41.356Z,15.30
2018-11-03T12:05:08.872Z,10.90
2018-11-03T12:07:36.406Z,11.80
2018-11-03T12:10:03.968Z,9.53
2018-11-03T12:12:31.357Z,7.07
2018-11-03T12:14:58.814Z,7.40
2018-11-03T12:17:26.243Z,6.97
2018-11-03T12:19:53.731Z,6.67
2018-11-03T12:22:21.215Z,6.23
2018-11-03T12:24:48.674Z,5.93
2018-11-03T12:27:16.138Z,7.40
2018-11-03T12:29:43.614Z,5.70
2018-11-03T12:32:11.096Z,4.87
2018-11-03T12:34:38.639Z,5.60
2018-11-03T12:37:06.299Z,5.83
2018-11-03T12:39:33.795Z,6.40
2018-11-03T12:42:01.294Z,6.00
2018-11-03T12:44:28.800Z,5.77
2018-11-03T12:46:56.268Z,5.10
2018-11-03T12:49:23.753Z,5.60
2018-11-03T12:51:51.247Z,7.60
2018-11-03T12:54:18.759Z,5.10
2018-11-03T12:56:46.183Z,5.23
2018-11-03T12:59:13.735Z,6.00
2018-11-03T13:01:41.120Z,5.60
2018-11-03T13:04:08.552Z,5.87
2018-11-03T13:06:36.008Z,4.83
2018-11-03T13:09:04.845Z,4.73
2018-11-03T13:11:32.283Z,3.70
2018-11-03T13:13:59.687Z,4.57
2018-11-03T13:16:27.338Z,3.37
2018-11-03T13:18:54.732Z,7.13
2018-11-03T13:21:22.178Z,3.60
2018-11-03T13:23:49.592Z,3.10
2018-11-03T13:26:17.024Z,2.93
2018-11-03T13:28:44.502Z,3.67
2018-11-03T13:31:11.939Z,2.40
2018-11-03T13:33:39.358Z,2.70
2018-11-03T13:36:07.153Z,4.87
2018-11-03T13:38:38.524Z,2.70
2018-11-03T13:41:06.008Z,3.00
2018-11-03T13:43:33.453Z,2.60
2018-11-03T13:46:01.004Z,2.73
2018-11-03T13:48:28.524Z,3.47
2018-11-03T13:50:55.978Z,2.50
2018-11-03T13:53:23.394Z,3.10
2018-11-03T13:55:50.859Z,3.83
2018-11-03T13:58:18.268Z,5.30
2018-11-03T14:00:45.692Z,3.77
2018-11-03T14:03:13.127Z,5.90
2018-11-03T14:05:40.549Z,5.10
2018-11-03T14:08:07.997Z,5.20
2018-11-03T14:10:35.421Z,3.63
2018-11-03T14:13:02.875Z,2.87
2018-11-03T14:15:30.298Z,2.20
2018-11-03T14:17:57.765Z,2.83
2018-11-03T14:20:25.225Z,2.60
2018-11-03T14:22:52.667Z,2.90
2018-11-03T14:25:20.108Z,2.87
2018-11-03T14:27:47.922Z,2.23
2018-11-03T14:30:15.519Z,4.47
2018-11-03T14:32:43.120Z,3.17
2018-11-03T14:35:11.147Z,3.33
2018-11-03T14:37:38.952Z,2.17
2018-11-03T14:40:08.727Z,2.67
2018-11-03T14:42:36.147Z,3.50
2018-11-03T14:45:03.976Z,4.10
2018-11-03T14:47:31.518Z,2.97
2018-11-03T14:50:02.266Z,3.53
2018-11-03T14:52:30.628Z,2.03
2018-11-03T14:54:58.042Z,3.50
2018-11-03T14:57:25.508Z,2.63
2018-11-03T14:59:52.933Z,2.30
2018-11-03T15:02:20.374Z,2.13
2018-11-03T15:04:47.772Z,3.87
2018-11-03T15:07:15.268Z,2.27
2018-11-03T15:09:42.684Z,3.43
2018-11-03T15:12:10.424Z,2.60
2018-11-03T15:14:37.866Z,1.97
2018-11-03T15:17:05.640Z,2.23
2018-11-03T15:19:33.073Z,2.10
2018-11-03T15:22:00.628Z,1.80
2018-11-03T15:24:28.062Z,5.67
2018-11-03T15:26:55.557Z,2.30
2018-11-03T15:29:23.006Z,4.13
2018-11-03T15:31:50.412Z,3.77
2018-11-03T15:34:17.917Z,2.10
2018-11-03T15:36:45.344Z,2.17
2018-11-03T15:39:12.771Z,2.10
2018-11-03T15:41:40.387Z,1.87
2018-11-03T15:44:07.847Z,5.33
2018-11-03T15:46:35.258Z,3.20
2018-11-03T15:49:02.703Z,1.83
2018-11-03T15:51:30.115Z,2.23
2018-11-03T15:53:57.582Z,2.13
2018-11-03T15:56:24.982Z,4.37
2018-11-03T15:58:52.427Z,2.60
2018-11-03T16:01:19.896Z,4.00
2018-11-03T16:03:47.349Z,2.00
2018-11-03T16:06:14.742Z,2.40
2018-11-03T16:08:42.160Z,4.20
2018-11-03T16:11:09.567Z,2.93
2018-11-03T16:13:36.996Z,2.67
2018-11-03T16:16:04.457Z,2.63
2018-11-03T16:18:31.940Z,2.30
2018-11-03T16:20:59.348Z,2.57
2018-11-03T16:23:27.042Z,5.20
2018-11-03T16:25:54.525Z,2.30
2018-11-03T16:28:22.112Z,2.70
2018-11-03T16:30:49.591Z,2.70
2018-11-03T16:33:17.010Z,3.80
2018-11-03T16:35:44.600Z,2.50
2018-11-03T16:38:11.858Z,2.47
2018-11-03T16:40:39.287Z,4.10
2018-11-03T16:43:06.695Z,4.03
2018-11-03T16:45:34.140Z,5.90
2018-11-03T16:48:01.567Z,4.03
2018-11-03T16:50:29.008Z,2.93
2018-11-03T16:52:56.407Z,4.30
2018-11-03T16:55:23.840Z,3.10
2018-11-03T16:57:51.235Z,3.70
2018-11-03T17:00:19.515Z,6.40
2018-11-03T17:02:46.957Z,4.13
2018-11-03T17:05:14.936Z,3.23
2018-11-03T17:07:42.381Z,2.50
2018-11-03T17:10:12.090Z,3.50
2018-11-03T17:12:40.917Z,4.20
2018-11-03T17:15:08.279Z,4.50
2018-11-03T17:17:35.672Z,3.70
2018-11-03T17:20:03.209Z,5.27
2018-11-03T17:22:30.633Z,6.37
2018-11-03T17:24:58.103Z,4.10
2018-11-03T17:27:25.719Z,4.30
2018-11-03T17:29:53.205Z,6.63
2018-11-03T17:32:20.691Z,4.63
2018-11-03T17:34:48.127Z,6.43
2018-11-03T17:37:15.947Z,8.90
2018-11-03T17:39:43.425Z,5.97
2018-11-03T17:42:10.870Z,7.27
2018-11-03T17:44:38.333Z,5.60
2018-11-03T17:47:06.140Z,6.40
2018-11-03T17:49:33.607Z,7.23
2018-11-03T17:52:01.019Z,6.97
2018-11-03T17:54:28.471Z,6.63
2018-11-03T17:56:55.940Z,9.37
2018-11-03T17:59:23.394Z,7.50
2018-11-03T18:01:50.956Z,8.07
2018-11-03T18:04:18.407Z,7.73
2018-11-03T18:06:45.866Z,7.60
2018-11-03T18:09:13.298Z,7.17
2018-11-03T18:11:40.743Z,7.47
2018-11-03T18:14:08.154Z,6.50
2018-11-03T18:16:35.682Z,7.43
2018-11-03T18:19:03.114Z,7.47
2018-11-03T18:21:30.556Z,8.10
2018-11-03T18:23:58.163Z,7.83
2018-11-03T18:26:25.639Z,8.23
2018-11-03T18:28:53.018Z,7.93
2018-11-03T18:31:20.482Z,8.83
2018-11-03T18:33:47.875Z,8.50
2018-11-03T18:36:15.305Z,8.83
2018-11-03T18:38:42.765Z,8.63
2018-11-03T18:41:10.225Z,8.93
2018-11-03T18:43:37.666Z,8.50
2018-11-03T18:46:05.276Z,9.30
2018-11-03T18:48:32.705Z,10.73
2018-11-03T18:51:00.140Z,10.30
2018-11-03T18:53:27.540Z,10.40
2018-11-03T18:55:55.022Z,10.00
2018-11-03T18:58:22.435Z,9.23
2018-11-03T19:00:49.966Z,9.40
2018-11-03T19:03:17.342Z,9.60
2018-11-03T19:05:44.765Z,9.13
2018-11-03T19:08:12.188Z,9.90
2018-11-03T19:10:39.666Z,11.13
2018-11-03T19:13:07.623Z,10.60
2018-11-03T19:15:35.061Z,13.43
2018-11-03T19:18:02.481Z,10.67
2018-11-03T19:20:29.991Z,11.80
2018-11-03T19:22:57.382Z,11.23
2018-11-03T19:25:24.858Z,11.33
2018-11-03T19:27:52.246Z,10.97
2018-11-03T19:30:19.849Z,11.60
2018-11-03T19:32:47.262Z,11.50
2018-11-03T19:35:14.659Z,11.07
2018-11-03T19:37:42.224Z,12.53
2018-11-03T19:40:11.049Z,11.00
2018-11-03T19:42:38.862Z,11.90
2018-11-03T19:45:06.289Z,13.20
2018-11-03T19:47:33.759Z,11.27
2018-11-03T19:50:01.151Z,11.70
2018-11-03T19:52:28.718Z,11.10
2018-11-03T19:54:56.198Z,11.70
2018-11-03T19:57:23.628Z,12.40
2018-11-03T19:59:51.136Z,12.07
2018-11-03T20:02:18.619Z,11.27
2018-11-03T20:04:46.018Z,13.00
2018-11-03T20:07:13.462Z,11.83
2018-11-03T20:09:42.577Z,11.33
2018-11-03T20:12:10.038Z,12.13
2018-11-03T20:14:37.451Z,12.23
2018-11-03T20:17:05.101Z,11.73
2018-11-03T20:19:32.500Z,11.40
2018-11-03T20:21:59.941Z,12.47
2018-11-03T20:24:27.372Z,12.07
2018-11-03T20:26:54.870Z,12.93
2018-11-03T20:29:22.312Z,12.57
2018-11-03T20:31:49.798Z,12.57
2018-11-03T20:34:17.166Z,12.00
2018-11-03T20:36:44.577Z,12.90
2018-11-03T20:39:11.982Z,13.37
2018-11-03T20:41:39.513Z,11.73
2018-11-03T20:44:06.881Z,12.40
2018-11-03T20:46:36.432Z,12.70
2018-11-03T20:49:03.868Z,13.47
2018-11-03T20:51:31.420Z,12.13
2018-11-03T20:53:58.947Z,12.10
2018-11-03T20:56:26.311Z,12.40
2018-11-03T20:58:53.724Z,12.67
2018-11-03T21:01:21.167Z,13.20
2018-11-03T21:03:48.635Z,10.93
2018-11-03T21:06:16.154Z,12.30
2018-11-03T21:08:43.645Z,12.00
2018-11-03T21:11:11.171Z,10.70
2018-11-03T21:13:38.718Z,10.37
2018-11-03T21:16:06.146Z,11.67
2018-11-03T21:18:33.572Z,12.10
2018-11-03T21:21:01.015Z,12.20
2018-11-03T21:23:28.526Z,11.57
2018-11-03T21:25:56.033Z,10.90
2018-11-03T21:28:23.587Z,11.73
2018-11-03T21:30:50.986Z,11.10
2018-11-03T21:33:18.520Z,11.03
2018-11-03T21:35:45.940Z,10.67
2018-11-03T21:38:13.374Z,18.93
2018-11-03T21:40:40.878Z,11.43
2018-11-03T21:43:08.337Z,11.73
2018-11-03T21:45:35.777Z,12.53
2018-11-03T21:48:03.235Z,11.13
2018-11-03T21:50:30.641Z,11.60
2018-11-03T21:52:58.091Z,11.10
2018-11-03T21:55:25.492Z,13.73
2018-11-03T21:57:52.918Z,12.23
2018-11-03T22:00:20.410Z,11.80
2018-11-03T22:02:47.884Z,12.53
2018-11-03T22:05:15.303Z,12.10
2018-11-03T22:07:43.213Z,12.17
2018-11-03T22:10:10.948Z,12.73
2018-11-03T22:12:39.118Z,12.30
2018-11-03T22:15:06.876Z,12.77
2018-11-03T22:17:34.316Z,12.57
2018-11-03T22:20:01.928Z,12.43
2018-11-03T22:22:29.359Z,12.47
2018-11-03T22:24:56.808Z,11.90
2018-11-03T22:27:24.202Z,11.93
2018-11-03T22:29:51.660Z,11.63
2018-11-03T22:32:19.083Z,12.97
2018-11-03T22:34:46.558Z,11.53
2018-11-03T22:37:14.008Z,10.93
2018-11-03T22:39:41.419Z,11.97
2018-11-03T22:42:09.024Z,11.33
2018-11-03T22:44:36.361Z,11.67
2018-11-03T22:47:03.999Z,12.07
2018-11-03T22:49:31.450Z,11.37
2018-11-03T22:51:59.003Z,10.63
2018-11-03T22:54:26.624Z,12.37
2018-11-03T22:56:54.124Z,12.47
2018-11-03T22:59:21.569Z,18.63
2018-11-03T23:01:49.051Z,11.50
2018-11-03T23:04:16.534Z,13.23
2018-11-03T23:06:43.996Z,11.33
2018-11-03T23:09:11.423Z,11.67
2018-11-03T23:11:38.869Z,12.50
2018-11-03T23:14:06.274Z,11.23
2018-11-03T23:16:33.753Z,11.40
2018-11-03T23:19:01.152Z,11.90
2018-11-03T23:21:28.617Z,11.87
2018-11-03T23:23:56.205Z,12.90
2018-11-03T23:26:24.064Z,14.27
2018-11-03T23:28:51.624Z,14.60
2018-11-03T23:31:19.079Z,15.10
2018-11-03T23:33:46.535Z,16.67
2018-11-03T23:36:13.993Z,17.50
2018-11-03T23:38:41.450Z,17.23
2018-11-03T23:41:08.859Z,16.03
2018-11-03T23:43:36.280Z,14.60
2018-11-03T23:46:03.783Z,14.90
2018-11-03T23:48:31.192Z,14.03
2018-11-03T23:50:58.633Z,13.30
2018-11-03T23:53:26.308Z,12.47
2018-11-03T23:55:53.831Z,13.80
2018-11-03T23:58:24.280Z,14.57
